createdAt,value
2023-03-26T00:01:10.655Z,1.73
2023-03-26T00:05:14.597Z,2.42
2023-03-26T00:09:17.198Z,1.52
2023-03-26T00:13:18.984Z,2.60
2023-03-26T00:17:21.299Z,1.00
2023-03-26T00:21:29.140Z,1.98
2023-03-26T00:25:32.076Z,2.67
2023-03-26T00:29:35.643Z,1.52
2023-03-26T00:33:38.685Z,3.65
2023-03-26T00:37:43.168Z,1.20
2023-03-26T00:41:44.970Z,1.10
2023-03-26T00:45:54.901Z,4.00
2023-03-26T00:49:57.686Z,1.35
2023-03-26T00:53:59.542Z,1.40
2023-03-26T00:58:01.764Z,2.45
2023-03-26T01:02:04.459Z,1.05
2023-03-26T01:06:22.322Z,3.03
2023-03-26T01:10:24.153Z,2.40
2023-03-26T01:14:26.957Z,1.30
2023-03-26T01:18:34.008Z,3.40
2023-03-26T01:22:37.790Z,1.10
2023-03-26T01:27:13.571Z,1.45
2023-03-26T01:31:42.882Z,1.63
2023-03-26T01:35:55.501Z,1.77
2023-03-26T01:40:07.274Z,1.20
2023-03-26T01:44:24.185Z,2.15
2023-03-26T01:48:41.441Z,1.50
2023-03-26T01:52:43.216Z,2.95
2023-03-26T01:56:47.927Z,3.92
2023-03-26T02:01:02.126Z,2.90
2023-03-26T02:05:30.548Z,1.48
2023-03-26T02:09:37.916Z,1.63
2023-03-26T02:13:41.674Z,1.30
2023-03-26T02:17:43.503Z,2.10
2023-03-26T02:21:46.860Z,2.88
2023-03-26T02:25:48.902Z,2.63
2023-03-26T02:29:50.830Z,1.50
2023-03-26T02:33:56.684Z,2.08
2023-03-26T02:37:59.709Z,1.45
2023-03-26T02:42:01.612Z,1.42
2023-03-26T02:46:05.506Z,1.30
2023-03-26T02:50:27.630Z,2.40
2023-03-26T02:54:58.718Z,1.95
2023-03-26T02:59:01.255Z,2.65
2023-03-26T03:03:04.575Z,1.88
2023-03-26T03:07:07.757Z,1.65
2023-03-26T03:11:11.969Z,1.17
2023-03-26T03:15:25.207Z,2.38
2023-03-26T03:19:27.356Z,1.77
2023-03-26T03:23:29.992Z,1.95
2023-03-26T03:27:42.988Z,2.78
2023-03-26T03:31:48.339Z,1.97
2023-03-26T03:36:19.732Z,3.72
2023-03-26T03:40:22.713Z,1.73
2023-03-26T03:44:24.974Z,3.42
2023-03-26T03:48:28.183Z,1.88
2023-03-26T03:52:30.484Z,2.33
2023-03-26T03:56:32.720Z,3.17
2023-03-26T04:00:53.601Z,2.03
2023-03-26T04:05:14.418Z,2.70
2023-03-26T04:09:21.618Z,1.20
2023-03-26T04:13:25.065Z,3.00
2023-03-26T04:17:27.189Z,1.73
2023-03-26T04:21:31.401Z,1.67
2023-03-26T04:25:36.918Z,4.70
2023-03-26T04:29:49.991Z,3.75
2023-03-26T04:34:06.463Z,2.97
2023-03-26T04:38:17.012Z,3.08
2023-03-26T04:42:21.905Z,5.00
2023-03-26T04:46:43.888Z,2.22
2023-03-26T04:51:01.768Z,2.03
2023-03-26T04:55:07.913Z,3.15
2023-03-26T04:59:34.741Z,1.70
2023-03-26T05:03:41.389Z,3.13
2023-03-26T05:07:46.188Z,3.72
2023-03-26T05:11:51.882Z,2.63
2023-03-26T05:15:53.802Z,2.35
2023-03-26T05:20:24.575Z,4.00
2023-03-26T05:24:28.702Z,1.98
2023-03-26T05:28:30.632Z,1.65
2023-03-26T05:32:36.780Z,3.42
2023-03-26T05:36:38.621Z,1.40
2023-03-26T05:40:57.822Z,2.65
2023-03-26T05:44:59.907Z,3.05
2023-03-26T05:49:03.982Z,1.92
2023-03-26T05:53:09.340Z,1.95
2023-03-26T05:57:30.992Z,3.88
2023-03-26T06:01:55.564Z,8.13
2023-03-26T06:06:20.620Z,1.80
2023-03-26T06:10:32.714Z,1.42
2023-03-26T06:14:35.020Z,6.00
2023-03-26T06:18:56.663Z,3.17
2023-03-26T06:23:08.078Z,2.90
2023-03-26T06:27:42.226Z,1.83
2023-03-26T06:32:19.496Z,2.50
2023-03-26T06:36:42.395Z,1.52
2023-03-26T06:40:44.575Z,4.78
2023-03-26T06:44:52.190Z,6.07
2023-03-26T06:49:16.870Z,1.65
2023-03-26T06:53:41.752Z,1.70
2023-03-26T06:57:55.401Z,1.90
2023-03-26T07:02:15.806Z,1.30
2023-03-26T07:06:36.057Z,4.07
2023-03-26T07:10:56.290Z,2.90
2023-03-26T07:15:16.945Z,3.03
2023-03-26T07:19:34.069Z,3.25
2023-03-26T07:23:36.396Z,2.15
2023-03-26T07:27:54.090Z,3.20
2023-03-26T07:32:19.095Z,2.25
2023-03-26T07:37:08.198Z,1.75
2023-03-26T07:41:36.499Z,2.05
2023-03-26T07:45:58.714Z,2.17
2023-03-26T07:50:22.999Z,3.05
2023-03-26T07:54:37.146Z,4.68
2023-03-26T07:59:46.284Z,3.10
2023-03-26T08:04:39.017Z,2.33
2023-03-26T08:09:20.816Z,3.35
2023-03-26T08:13:30.626Z,1.60
2023-03-26T08:18:01.614Z,3.53
2023-03-26T08:22:34.273Z,4.43
2023-03-26T08:26:58.596Z,4.30
2023-03-26T08:31:03.095Z,3.33
2023-03-26T08:35:05.429Z,3.05
2023-03-26T08:39:08.152Z,2.30
2023-03-26T08:43:42.316Z,3.78
2023-03-26T08:48:00.568Z,3.03
2023-03-26T08:52:21.514Z,3.08
2023-03-26T08:56:40.115Z,1.77
2023-03-26T09:00:44.802Z,3.75
2023-03-26T09:04:59.335Z,1.90
2023-03-26T09:09:19.569Z,2.22
2023-03-26T09:13:53.311Z,1.65
2023-03-26T09:18:26.244Z,1.42
2023-03-26T09:22:39.805Z,2.78
2023-03-26T09:26:51.428Z,2.30
2023-03-26T09:31:23.385Z,2.40
2023-03-26T09:35:52.904Z,2.65
2023-03-26T09:40:18.713Z,2.58
2023-03-26T09:44:51.124Z,1.60
2023-03-26T09:49:22.775Z,2.00
2023-03-26T09:53:59.873Z,3.22
2023-03-26T09:58:38.513Z,1.65
2023-03-26T10:03:21.257Z,2.25
2023-03-26T10:07:32.149Z,1.20
2023-03-26T10:12:12.351Z,0.60
2023-03-26T10:16:31.512Z,1.85
2023-03-26T10:20:58.164Z,0.68
2023-03-26T10:25:22.114Z,0.80
2023-03-26T10:29:48.532Z,0.70
2023-03-26T10:34:28.728Z,1.33
2023-03-26T10:38:42.808Z,1.75
2023-03-26T10:43:02.095Z,0.88
2023-03-26T10:47:22.637Z,0.85
2023-03-26T10:51:36.324Z,0.60
2023-03-26T10:55:41.634Z,0.90
2023-03-26T10:59:43.551Z,1.05
2023-03-26T11:03:54.550Z,1.38
2023-03-26T11:08:02.435Z,1.20
2023-03-26T11:12:27.282Z,1.95
2023-03-26T11:16:51.738Z,1.70
2023-03-26T11:21:19.105Z,0.75
2023-03-26T11:25:50.924Z,2.53
2023-03-26T11:30:16.520Z,3.03
2023-03-26T11:34:27.237Z,2.88
2023-03-26T11:38:33.526Z,1.23
2023-03-26T11:42:35.826Z,0.73
2023-03-26T11:46:42.622Z,0.90
2023-03-26T11:50:48.115Z,1.05
2023-03-26T11:54:50.662Z,0.98
2023-03-26T11:59:06.332Z,1.00
2023-03-26T12:03:15.752Z,1.65
2023-03-26T12:07:23.353Z,0.70
2023-03-26T12:11:28.394Z,0.80
2023-03-26T12:15:32.231Z,2.38
2023-03-26T12:19:38.174Z,1.55
2023-03-26T12:24:00.293Z,2.33
2023-03-26T12:28:18.033Z,1.65
2023-03-26T12:32:19.925Z,1.55
2023-03-26T12:36:30.326Z,0.95
2023-03-26T12:40:36.483Z,3.38
2023-03-26T12:44:59.138Z,2.47
2023-03-26T12:49:08.959Z,3.80
2023-03-26T12:53:41.786Z,5.90
2023-03-26T12:58:13.512Z,6.07
2023-03-26T13:02:53.109Z,2.78
2023-03-26T13:07:02.437Z,1.65
2023-03-26T13:11:25.771Z,2.63
2023-03-26T13:15:41.200Z,1.85
2023-03-26T13:19:44.011Z,2.60
2023-03-26T13:23:48.891Z,4.30
2023-03-26T13:27:59.505Z,2.05
2023-03-26T13:32:10.142Z,2.00
2023-03-26T13:36:33.025Z,1.90
2023-03-26T13:40:57.881Z,2.13
2023-03-26T13:45:31.936Z,2.15
2023-03-26T13:49:55.290Z,2.40
2023-03-26T13:54:00.137Z,2.17
2023-03-26T13:58:05.613Z,2.13
2023-03-26T14:02:25.886Z,1.27
2023-03-26T14:06:30.784Z,1.60
2023-03-26T14:10:40.376Z,2.00
2023-03-26T14:15:04.150Z,3.13
2023-03-26T14:19:30.907Z,1.98
2023-03-26T14:24:10.127Z,1.88
2023-03-26T14:28:30.655Z,2.20
2023-03-26T14:32:40.708Z,1.17
2023-03-26T14:37:07.377Z,2.28
2023-03-26T14:41:29.356Z,1.80
2023-03-26T14:45:55.897Z,1.15
2023-03-26T14:50:20.168Z,1.98
2023-03-26T14:54:29.158Z,1.90
2023-03-26T14:58:52.819Z,1.48
2023-03-26T15:03:08.034Z,1.17
2023-03-26T15:07:31.644Z,1.30
2023-03-26T15:12:12.820Z,1.10
2023-03-26T15:16:46.665Z,2.15
2023-03-26T15:20:48.453Z,1.25
2023-03-26T15:25:27.242Z,2.08
2023-03-26T15:30:11.580Z,1.50
2023-03-26T15:34:35.025Z,2.20
2023-03-26T15:38:48.890Z,1.95
2023-03-26T15:43:13.780Z,1.27
2023-03-26T15:47:36.991Z,1.00
2023-03-26T15:51:47.025Z,0.80
2023-03-26T15:56:14.480Z,0.90
2023-03-26T16:00:23.178Z,0.73
2023-03-26T16:04:50.723Z,0.90
2023-03-26T16:09:07.976Z,0.80
2023-03-26T16:13:12.818Z,1.23
2023-03-26T16:17:20.749Z,1.10
2023-03-26T16:21:30.427Z,1.58
2023-03-26T16:25:53.062Z,0.90
2023-03-26T16:30:00.916Z,0.90
2023-03-26T16:34:07.171Z,0.90
2023-03-26T16:38:16.282Z,1.13
2023-03-26T16:42:28.975Z,1.70
2023-03-26T16:46:42.697Z,2.90
2023-03-26T16:51:03.838Z,3.47
2023-03-26T16:55:43.562Z,18.58
2023-03-26T17:00:20.526Z,14.35
2023-03-26T17:04:28.488Z,7.65
2023-03-26T17:08:53.386Z,6.88
2023-03-26T17:13:09.947Z,2.78
2023-03-26T17:17:20.463Z,1.25
2023-03-26T17:22:06.090Z,1.10
2023-03-26T17:26:23.743Z,0.90
2023-03-26T17:30:33.606Z,1.90
2023-03-26T17:34:38.487Z,2.90
2023-03-26T17:38:40.214Z,2.45
2023-03-26T17:43:08.426Z,1.90
2023-03-26T17:47:34.804Z,1.05
2023-03-26T17:51:49.029Z,1.00
2023-03-26T17:55:52.244Z,0.93
2023-03-26T17:59:59.744Z,0.90
2023-03-26T18:04:04.369Z,1.00
2023-03-26T18:08:24.835Z,0.80
2023-03-26T18:12:44.947Z,1.13
2023-03-26T18:17:00.620Z,0.95
2023-03-26T18:21:07.205Z,1.20
2023-03-26T18:25:21.837Z,1.80
2023-03-26T18:29:32.269Z,2.08
2023-03-26T18:33:45.858Z,3.42
2023-03-26T18:37:50.304Z,2.13
2023-03-26T18:41:52.965Z,2.13
2023-03-26T18:45:55.967Z,0.90
2023-03-26T18:49:59.633Z,1.02
2023-03-26T18:54:05.875Z,2.60
2023-03-26T18:58:35.632Z,4.67
2023-03-26T19:02:38.616Z,4.35
2023-03-26T19:06:43.131Z,2.17
2023-03-26T19:10:48.160Z,2.00
2023-03-26T19:15:05.326Z,2.35
2023-03-26T19:19:07.943Z,1.40
2023-03-26T19:23:16.294Z,2.47
2023-03-26T19:27:18.285Z,4.03
2023-03-26T19:31:26.108Z,4.35
2023-03-26T19:35:28.330Z,2.90
2023-03-26T19:39:41.555Z,4.93
2023-03-26T19:43:48.631Z,7.68
2023-03-26T19:48:00.423Z,10.07
2023-03-26T19:52:13.636Z,12.90
2023-03-26T19:56:18.652Z,4.40
2023-03-26T20:00:21.943Z,6.88
2023-03-26T20:04:23.727Z,7.53
2023-03-26T20:08:29.157Z,8.32
2023-03-26T20:12:31.205Z,5.82
2023-03-26T20:16:34.201Z,3.65
2023-03-26T20:20:36.721Z,9.05
2023-03-26T20:24:38.551Z,13.77
2023-03-26T20:28:47.807Z,9.60
2023-03-26T20:32:51.065Z,7.35
2023-03-26T20:37:12.846Z,1.63
2023-03-26T20:41:24.492Z,1.52
2023-03-26T20:45:26.304Z,1.50
2023-03-26T20:49:29.316Z,2.08
2023-03-26T20:53:31.104Z,1.52
2023-03-26T20:57:33.775Z,1.35
2023-03-26T21:01:35.864Z,2.22
2023-03-26T21:05:38.811Z,1.48
2023-03-26T21:09:41.387Z,1.23
2023-03-26T21:14:15.770Z,1.55
2023-03-26T21:18:17.827Z,1.05
2023-03-26T21:22:54.209Z,2.80
2023-03-26T21:27:22.865Z,1.10
2023-03-26T21:31:26.539Z,1.10
2023-03-26T21:35:28.806Z,0.80
2023-03-26T21:39:30.940Z,0.82
2023-03-26T21:43:32.707Z,0.80
2023-03-26T21:47:34.804Z,0.65
2023-03-26T21:51:36.768Z,0.80
2023-03-26T21:56:03.837Z,0.90
2023-03-26T22:00:18.342Z,0.95
2023-03-26T22:04:28.594Z,0.80
2023-03-26T22:08:37.120Z,0.95
2023-03-26T22:12:38.950Z,0.90
2023-03-26T22:16:41.665Z,1.17
2023-03-26T22:20:46.602Z,1.17
2023-03-26T22:24:48.453Z,1.05
2023-03-26T22:28:51.167Z,1.27
2023-03-26T22:32:53.628Z,1.30
2023-03-26T22:36:55.529Z,1.98
2023-03-26T22:40:58.194Z,2.67
2023-03-26T22:45:00.162Z,1.50
2023-03-26T22:49:02.040Z,1.20
2023-03-26T22:53:03.825Z,1.00
2023-03-26T22:57:05.638Z,2.10
2023-03-26T23:01:11.818Z,1.67
2023-03-26T23:05:14.702Z,3.30
2023-03-26T23:09:16.454Z,2.55
2023-03-26T23:13:19.866Z,1.50
2023-03-26T23:17:22.371Z,2.00
2023-03-26T23:21:24.710Z,1.30
2023-03-26T23:25:28.518Z,1.58
2023-03-26T23:29:31.853Z,1.55
2023-03-26T23:33:36.832Z,1.60
2023-03-26T23:37:38.649Z,1.23
2023-03-26T23:41:40.427Z,1.50
2023-03-26T23:45:48.939Z,3.13
2023-03-26T23:49:50.916Z,1.77
2023-03-26T23:53:53.455Z,1.40
2023-03-26T23:57:55.606Z,2.03
